Time;durP1;ratioP1;P1;durP2;ratioP2;P2;SDS_P1;SDS_P2;PMS_P1;PMS_P2;Temp;Humidity;BMP_temperature;BMP_pressure;BME280_temperature;BME280_humidity;BME280_pressure;Samples;Min_cycle;Max_cycle;Signal;HPM_P1;HPM_P2
2022/12/01 00:00:29;;;;;;;62.22;28.42;;;8.00;99.90;;;;;;5013825;28;20064;-77
2022/12/01 00:02:55;;;;;;;63.03;29.92;;;8.00;99.90;;;;;;5013551;28;20057;-77
2022/12/01 00:05:21;;;;;;;62.72;28.92;;;8.00;99.90;;;;;;5013793;28;20411;-78
2022/12/01 00:07:49;;;;;;;64.18;29.67;;;8.10;99.90;;;;;;5013853;28;20046;-79
2022/12/01 00:10:27;;;;;;;62.15;28.30;;;8.00;99.90;;;;;;5012745;28;20034;-78
2022/12/01 00:12:58;;;;;;;56.15;28.05;;;7.90;99.90;;;;;;5014260;28;20503;-79
2022/12/01 00:15:35;;;;;;;58.28;28.50;;;7.90;99.90;;;;;;5013305;28;20510;-79
2022/12/01 00:18:04;;;;;;;61.58;28.83;;;7.90;99.90;;;;;;5014382;28;20030;-81
2022/12/01 00:20:31;;;;;;;64.28;30.10;;;7.90;99.90;;;;;;5014854;28;20052;-80
2022/12/01 00:22:57;;;;;;;65.70;29.77;;;7.90;99.90;;;;;;5012393;28;20512;-79
2022/12/01 00:25:22;;;;;;;58.63;29.45;;;7.90;99.90;;;;;;5012527;28;20128;-79
2022/12/01 00:27:50;;;;;;;59.75;28.05;;;7.90;99.90;;;;;;5013648;28;20022;-79
2022/12/01 00:30:17;;;;;;;63.47;29.60;;;7.90;99.90;;;;;;5013199;28;20494;-77
2022/12/01 00:32:43;;;;;;;63.92;29.98;;;7.90;99.90;;;;;;5013189;28;20049;-79
2022/12/01 00:35:09;;;;;;;59.92;29.77;;;7.90;99.90;;;;;;5011934;28;20610;-78
2022/12/01 00:37:35;;;;;;;61.08;29.67;;;7.80;99.90;;;;;;5012580;28;20100;-78
2022/12/01 00:40:01;;;;;;;60.53;29.08;;;7.80;99.90;;;;;;5013338;28;20097;-79
2022/12/01 00:42:27;;;;;;;62.33;29.05;;;7.80;99.90;;;;;;5012791;28;20026;-78
2022/12/01 00:44:53;;;;;;;65.93;30.52;;;7.90;99.90;;;;;;5012822;28;20074;-78
2022/12/01 00:47:19;;;;;;;62.47;30.48;;;7.80;99.90;;;;;;5012822;28;20134;-77
2022/12/01 00:49:45;;;;;;;64.50;29.77;;;8.00;99.90;;;;;;5012682;28;20042;-78
2022/12/01 00:52:16;;;;;;;62.90;28.75;;;7.90;99.90;;;;;;5013336;28;20483;-78
2022/12/01 00:54:42;;;;;;;67.47;30.48;;;7.90;99.90;;;;;;5011743;28;20041;-77
2022/12/01 00:57:08;;;;;;;67.65;31.08;;;7.90;99.90;;;;;;5012484;28;20478;-77
2022/12/01 00:59:34;;;;;;;67.68;30.98;;;7.90;99.90;;;;;;5012405;28;20034;-76
2022/12/01 01:02:04;;;;;;;66.88;30.73;;;7.90;99.90;;;;;;5011201;28;20100;-77
2022/12/01 01:04:30;;;;;;;67.30;32.15;;;7.90;99.90;;;;;;5011166;28;20021;-76
2022/12/01 01:06:56;;;;;;;67.03;32.05;;;7.90;99.90;;;;;;5011742;28;20018;-77
2022/12/01 01:09:22;;;;;;;58.17;28.30;;;7.90;99.90;;;;;;5012286;28;20037;-76
2022/12/01 01:11:48;;;;;;;69.25;32.13;;;7.80;99.90;;;;;;5012084;28;20064;-75
2022/12/01 01:14:14;;;;;;;64.60;30.52;;;7.80;99.90;;;;;;5012069;28;20030;-76
2022/12/01 01:16:39;;;;;;;71.20;31.20;;;7.80;99.90;;;;;;5011007;28;20115;-77
2022/12/01 01:19:05;;;;;;;73.72;32.15;;;7.90;99.90;;;;;;5011483;28;20371;-77
2022/12/01 01:21:31;;;;;;;70.22;31.92;;;7.80;99.90;;;;;;5012289;28;20048;-77
2022/12/01 01:23:57;;;;;;;68.10;30.48;;;7.90;99.90;;;;;;5012373;28;20044;-77
2022/12/01 01:26:26;;;;;;;70.20;33.03;;;7.80;99.90;;;;;;5012082;28;20034;-77
2022/12/01 01:28:52;;;;;;;69.25;32.13;;;7.80;99.90;;;;;;5012119;28;20026;-74
2022/12/01 01:31:20;;;;;;;69.15;31.83;;;7.80;99.90;;;;;;5011105;28;20075;-76
2022/12/01 01:33:46;;;;;;;67.70;31.67;;;7.80;99.90;;;;;;5011464;28;20032;-76
2022/12/01 01:36:15;;;;;;;73.85;32.38;;;7.70;99.90;;;;;;5012144;28;20034;-77
2022/12/01 01:38:41;;;;;;;74.55;33.70;;;7.70;99.90;;;;;;5011769;28;20092;-78
2022/12/01 01:41:08;;;;;;;70.32;32.83;;;7.70;99.90;;;;;;5011734;28;20053;-77
2022/12/01 01:43:52;;;;;;;68.65;30.83;;;7.70;99.90;;;;;;5011984;28;20519;-78
2022/12/01 01:46:25;;;;;;;74.55;33.90;;;7.70;99.90;;;;;;5010650;28;20527;-76
2022/12/01 01:49:13;;;;;;;79.85;32.63;;;7.80;99.90;;;;;;5011301;28;20121;-79
2022/12/01 01:51:43;;;;;;;76.07;33.25;;;7.70;99.90;;;;;;5011277;28;20041;-77
2022/12/01 01:54:19;;;;;;;76.75;34.90;;;7.70;99.90;;;;;;5010895;28;20117;-77
2022/12/01 01:56:46;;;;;;;71.55;34.03;;;7.70;99.90;;;;;;5011712;28;20357;-77
2022/12/01 01:59:17;;;;;;;69.23;31.83;;;7.80;99.90;;;;;;5011684;28;20038;-78
2022/12/01 02:01:43;;;;;;;68.18;31.77;;;7.70;99.90;;;;;;5011757;28;20449;-78
2022/12/01 02:04:08;;;;;;;66.68;31.38;;;7.70;99.90;;;;;;5010668;28;20351;-78
2022/12/01 02:06:34;;;;;;;71.63;33.92;;;7.70;99.90;;;;;;5011802;28;20109;-78
2022/12/01 02:09:00;;;;;;;73.43;34.08;;;7.80;99.90;;;;;;5011163;28;20495;-78
2022/12/01 02:12:03;;;;;;;75.00;32.97;;;7.80;99.90;;;;;;5011199;28;20042;-78
2022/12/01 02:15:07;;;;;;;68.10;31.77;;;7.80;99.90;;;;;;4999963;28;20030;-77
2022/12/01 02:17:54;;;;;;;70.88;32.42;;;7.70;99.90;;;;;;5010171;28;20038;-79
2022/12/01 02:20:44;;;;;;;75.57;33.80;;;7.80;99.90;;;;;;5010944;28;20022;-78
2022/12/01 02:23:41;;;;;;;77.00;34.28;;;7.70;99.90;;;;;;5011170;28;20029;-78
2022/12/01 02:26:38;;;;;;;73.68;33.97;;;7.70;99.90;;;;;;5010371;28;20030;-77
2022/12/01 02:29:37;;;;;;;77.95;35.08;;;7.70;99.90;;;;;;5010956;28;20038;-78
2022/12/01 02:32:40;;;;;;;76.65;33.38;;;7.70;99.90;;;;;;5009341;28;20065;-78
2022/12/01 02:35:15;;;;;;;77.10;34.95;;;7.70;99.90;;;;;;5012139;28;20088;-77
2022/12/01 02:37:54;;;;;;;71.18;33.20;;;7.80;99.90;;;;;;5030372;28;20073;-77
2022/12/01 02:40:30;;;;;;;79.82;34.63;;;7.90;99.90;;;;;;5029383;28;20013;-76
2022/12/01 02:43:15;;;;;;;79.50;34.22;;;7.70;99.90;;;;;;5030090;28;20017;-77
2022/12/01 02:45:53;;;;;;;76.95;35.20;;;7.70;99.90;;;;;;5029468;28;20499;-77
2022/12/01 02:48:24;;;;;;;;;;;7.70;99.90;;;;;;5030825;28;20410;-76
2022/12/01 02:50:52;;;;;;;76.43;34.67;;;7.60;99.90;;;;;;5030561;28;19984;-77
2022/12/01 02:53:19;;;;;;;83.18;36.28;;;7.60;99.90;;;;;;5030731;28;20064;-78
2022/12/01 02:55:47;;;;;;;75.03;34.37;;;7.60;99.90;;;;;;5030492;28;20025;-76
2022/12/01 02:58:14;;;;;;;78.72;35.25;;;7.60;99.90;;;;;;5030974;28;20408;-75
2022/12/01 03:00:41;;;;;;;79.95;35.00;;;7.60;99.90;;;;;;5026197;28;20057;-77
2022/12/01 03:03:41;;;;;;;82.63;35.67;;;7.60;99.90;;;;;;5026426;28;20048;-78
2022/12/01 03:06:19;;;;;;;72.05;32.72;;;7.60;99.90;;;;;;5018449;28;20029;-78
2022/12/01 03:08:59;;;;;;;83.03;36.38;;;7.60;99.90;;;;;;5030495;28;20033;-77
2022/12/01 03:11:35;;;;;;;84.97;34.95;;;7.60;99.90;;;;;;5030050;28;20473;-78
2022/12/01 03:14:12;;;;;;;84.82;35.00;;;7.70;99.90;;;;;;5029457;28;20472;-79
2022/12/01 03:16:44;;;;;;;87.72;37.63;;;7.70;99.90;;;;;;5030618;28;20041;-79
2022/12/01 03:19:34;;;;;;;81.60;35.05;;;7.70;99.90;;;;;;5031862;28;20021;-77
2022/12/01 03:22:09;;;;;;;85.03;36.80;;;7.70;99.90;;;;;;5030810;28;20029;-78
2022/12/01 03:24:37;;;;;;;86.50;37.63;;;7.60;99.90;;;;;;5030071;28;20029;-77
2022/12/01 03:27:04;;;;;;;84.45;36.03;;;7.60;99.90;;;;;;5030246;28;20117;-78
2022/12/01 03:29:42;;;;;;;89.72;35.97;;;7.60;99.90;;;;;;5028784;28;20404;-78
2022/12/01 03:32:34;;;;;;;84.45;36.95;;;7.60;99.90;;;;;;5028868;28;20037;-78
2022/12/01 03:35:26;;;;;;;84.80;36.83;;;7.60;99.90;;;;;;5028817;28;20030;-76
2022/12/01 03:38:13;;;;;;;84.90;35.97;;;7.60;99.90;;;;;;5028785;28;20037;-78
2022/12/01 03:40:40;;;;;;;82.40;35.85;;;7.60;99.90;;;;;;5029689;28;20032;-76
2022/12/01 03:43:12;;;;;;;83.07;35.50;;;7.60;99.90;;;;;;5029489;28;20345;-77
2022/12/01 03:45:52;;;;;;;84.43;36.33;;;7.50;99.90;;;;;;5029929;28;20075;-77
2022/12/01 03:48:18;;;;;;;86.00;36.67;;;7.50;99.90;;;;;;5028933;28;20721;-78
2022/12/01 03:51:13;;;;;;;84.32;36.45;;;7.60;99.90;;;;;;5030056;28;20095;-78
2022/12/01 03:53:50;;;;;;;87.88;36.90;;;7.50;99.90;;;;;;5029908;28;20220;-78
2022/12/01 03:56:20;;;;;;;95.20;38.22;;;7.40;99.90;;;;;;5029657;28;20096;-76
2022/12/01 03:58:50;;;;;;;88.53;37.72;;;7.50;99.90;;;;;;5029973;28;20113;-77
2022/12/01 04:01:15;;;;;;;94.35;39.17;;;7.50;99.90;;;;;;5028680;28;20029;-76
2022/12/01 04:03:44;;;;;;;86.28;36.13;;;7.50;99.90;;;;;;5029133;28;20033;-78
2022/12/01 04:06:10;;;;;;;95.50;37.92;;;7.40;99.90;;;;;;5028831;28;20033;-76
2022/12/01 04:08:36;;;;;;;91.25;39.10;;;7.40;99.90;;;;;;5029799;28;20045;-78
2022/12/01 04:12:28;;;;;;;94.60;39.47;;;7.30;99.90;;;;;;5029344;28;20045;-77
2022/12/01 04:13:47;;;;;;;108.07;40.67;;;7.30;99.90;;;;;;5031784;28;20034;-77
2022/12/01 04:16:13;;;;;;;103.03;40.78;;;7.30;99.90;;;;;;5032870;28;20025;-74
2022/12/01 04:18:39;;;;;;;98.90;39.35;;;7.30;99.90;;;;;;5033592;28;20060;-77
2022/12/01 04:21:04;;;;;;;102.53;39.47;;;7.30;99.90;;;;;;5033145;28;20030;-77
2022/12/01 04:26:14;;;;;;;100.18;38.78;;;7.40;99.90;;;;;;5033387;28;20103;-78
2022/12/01 04:28:40;;;;;;;101.47;39.22;;;7.50;99.90;;;;;;5032990;28;20420;-78
2022/12/01 04:31:06;;;;;;;97.65;40.67;;;7.50;99.90;;;;;;5033533;28;20049;-78
2022/12/01 04:33:31;;;;;;;96.30;39.13;;;7.40;99.90;;;;;;5033129;28;20105;-78
2022/12/01 04:36:00;;;;;;;104.72;39.25;;;7.40;99.90;;;;;;5031799;28;20087;-78
2022/12/01 04:38:27;;;;;;;101.43;39.40;;;7.40;99.90;;;;;;5031895;28;20451;-77
2022/12/01 04:40:52;;;;;;;102.82;39.53;;;7.40;99.90;;;;;;5031516;28;20022;-78
2022/12/01 04:43:18;;;;;;;100.55;41.05;;;7.30;99.90;;;;;;5031598;28;20033;-77
2022/12/01 04:45:44;;;;;;;103.30;39.75;;;7.30;99.90;;;;;;5032039;28;20415;-77
2022/12/01 04:48:10;;;;;;;99.03;39.28;;;7.20;99.90;;;;;;5032760;28;20045;-77
2022/12/01 04:50:36;;;;;;;101.45;40.30;;;7.30;99.90;;;;;;5031620;28;20064;-78
2022/12/01 04:53:03;;;;;;;95.93;38.60;;;7.20;99.90;;;;;;5031777;28;20037;-76
2022/12/01 04:55:28;;;;;;;88.15;36.85;;;7.20;99.90;;;;;;5032842;28;20064;-77
2022/12/01 04:57:54;;;;;;;85.22;36.17;;;7.00;99.90;;;;;;5032850;28;20059;-78
2022/12/01 05:00:20;;;;;;;97.53;38.28;;;7.00;99.90;;;;;;5032342;28;20054;-77
2022/12/01 05:02:45;;;;;;;92.18;34.83;;;7.10;99.90;;;;;;5032282;28;20041;-78
2022/12/01 05:05:12;;;;;;;91.80;35.83;;;7.10;99.90;;;;;;5031057;28;20057;-77
2022/12/01 05:07:39;;;;;;;81.75;34.25;;;7.10;99.90;;;;;;5032066;28;20029;-77
2022/12/01 05:10:05;;;;;;;96.18;36.95;;;7.10;99.90;;;;;;5031561;28;20040;-77
2022/12/01 05:12:31;;;;;;;100.15;35.63;;;7.00;99.90;;;;;;5032053;28;20103;-77
2022/12/01 05:14:57;;;;;;;93.00;37.30;;;7.00;99.90;;;;;;5032295;28;20025;-77
2022/12/01 05:17:23;;;;;;;84.45;34.25;;;7.00;99.80;;;;;;5030896;28;20098;-77
2022/12/01 05:22:32;;;;;;;99.63;35.67;;;7.00;99.90;;;;;;5032227;28;20118;-75
2022/12/01 05:24:58;;;;;;;93.07;35.75;;;6.90;99.90;;;;;;5031407;28;20061;-76
2022/12/01 05:27:24;;;;;;;98.30;38.65;;;6.90;99.90;;;;;;5030887;28;20060;-76
2022/12/01 05:29:49;;;;;;;97.28;38.42;;;6.80;99.90;;;;;;5031948;28;20037;-77
2022/12/01 05:32:15;;;;;;;99.72;37.67;;;6.80;99.90;;;;;;5030634;28;20039;-77
2022/12/01 05:34:41;;;;;;;96.88;38.22;;;6.80;99.90;;;;;;5031830;28;20095;-77
2022/12/01 05:37:06;;;;;;;93.90;36.30;;;6.90;99.90;;;;;;5032213;28;20053;-76
2022/12/01 05:39:32;;;;;;;97.07;36.58;;;6.90;99.90;;;;;;5031895;28;20333;-77
2022/12/01 05:41:58;;;;;;;92.25;36.05;;;6.90;99.80;;;;;;5031654;28;20103;-77
2022/12/01 05:44:23;;;;;;;94.45;37.03;;;6.80;99.70;;;;;;5031974;28;20144;-77
2022/12/01 05:46:49;;;;;;;101.30;36.45;;;6.80;99.80;;;;;;5031610;28;20088;-77
2022/12/01 05:49:15;;;;;;;93.40;36.67;;;6.80;99.90;;;;;;5031706;28;20037;-76
2022/12/01 05:51:42;;;;;;;91.72;35.20;;;6.80;99.90;;;;;;5030700;28;20118;-77
2022/12/01 05:54:09;;;;;;;99.15;36.42;;;6.80;99.90;;;;;;5031293;28;20475;-76
2022/12/01 05:56:35;;;;;;;90.53;37.05;;;6.80;99.90;;;;;;5031142;28;20120;-76
2022/12/01 05:59:00;;;;;;;93.05;35.28;;;6.70;99.90;;;;;;5030313;28;20130;-77
2022/12/01 06:01:26;;;;;;;96.45;35.75;;;6.70;99.90;;;;;;5030225;28;20033;-77
2022/12/01 06:03:53;;;;;;;88.70;33.30;;;6.70;99.90;;;;;;5032422;28;20018;-77
2022/12/01 06:06:19;;;;;;;82.22;32.20;;;6.80;99.90;;;;;;5031386;28;20044;-75
2022/12/01 06:08:45;;;;;;;83.55;32.75;;;6.70;99.70;;;;;;5030638;28;20034;-77
2022/12/01 06:11:10;;;;;;;83.85;32.03;;;6.70;99.50;;;;;;5031163;28;20579;-77
2022/12/01 06:13:36;;;;;;;87.20;32.85;;;6.70;99.60;;;;;;5031953;28;20030;-78
2022/12/01 06:16:04;;;;;;;85.95;30.80;;;6.50;99.50;;;;;;5032864;28;20090;-78
2022/12/01 06:18:33;;;;;;;81.57;30.80;;;6.60;99.90;;;;;;5031505;28;20033;-81
2022/12/01 06:20:58;;;;;;;79.07;30.23;;;6.50;99.80;;;;;;5031949;28;20045;-77
2022/12/01 06:23:24;;;;;;;80.22;31.02;;;6.60;99.90;;;;;;5033536;28;20034;-79
2022/12/01 06:25:50;;;;;;;73.47;28.55;;;6.60;99.80;;;;;;5030057;28;20029;-77
2022/12/01 06:28:16;;;;;;;74.18;29.38;;;6.70;99.60;;;;;;5031016;28;20029;-77
2022/12/01 06:30:42;;;;;;;77.68;29.20;;;6.60;99.40;;;;;;5031533;28;20098;-78
2022/12/01 06:33:08;;;;;;;83.60;30.30;;;6.60;99.40;;;;;;5030984;28;20197;-78
2022/12/01 06:35:34;;;;;;;84.05;30.65;;;6.60;99.70;;;;;;5029862;28;20030;-77
2022/12/01 06:38:00;;;;;;;76.38;28.08;;;6.60;99.40;;;;;;5029776;28;20033;-78
2022/12/01 06:40:26;;;;;;;80.70;29.83;;;6.60;99.20;;;;;;5013018;28;20090;-77
2022/12/01 06:42:52;;;;;;;77.95;31.02;;;6.60;99.30;;;;;;5013044;28;20425;-78
2022/12/01 06:45:18;;;;;;;81.80;29.20;;;6.60;99.50;;;;;;5010283;28;20081;-78
2022/12/01 06:47:43;;;;;;;81.18;30.23;;;6.60;99.30;;;;;;5011479;28;20090;-77
2022/12/01 06:50:10;;;;;;;81.13;29.95;;;6.50;99.30;;;;;;5011959;28;20498;-77
2022/12/01 06:52:36;;;;;;;75.82;28.63;;;6.60;99.40;;;;;;5013402;28;20022;-76
2022/12/01 06:55:03;;;;;;;90.03;32.58;;;6.50;99.20;;;;;;5009868;28;20089;-78
2022/12/01 06:57:30;;;;;;;78.50;28.48;;;6.60;99.30;;;;;;5011230;28;20095;-78
2022/12/01 06:59:56;;;;;;;77.22;28.85;;;6.50;99.30;;;;;;5010626;28;20042;-78
2022/12/01 07:02:21;;;;;;;87.70;29.83;;;6.50;99.40;;;;;;5010729;28;20049;-78
2022/12/01 07:04:47;;;;;;;82.50;29.10;;;6.50;99.50;;;;;;5010696;28;20057;-77
2022/12/01 07:07:13;;;;;;;82.38;28.83;;;6.50;99.40;;;;;;5010310;28;20104;-78
2022/12/01 07:09:38;;;;;;;81.50;29.15;;;6.50;99.30;;;;;;5009714;28;20041;-77
2022/12/01 07:12:04;;;;;;;75.72;28.50;;;6.50;99.20;;;;;;5010462;28;20054;-77
2022/12/01 07:14:30;;;;;;;82.53;29.75;;;6.50;99.20;;;;;;5010438;28;20038;-77
2022/12/01 07:16:57;;;;;;;83.40;29.95;;;6.50;99.30;;;;;;5009260;28;20044;-78
2022/12/01 07:19:22;;;;;;;78.82;27.77;;;6.50;99.30;;;;;;5009257;28;20121;-78
2022/12/01 07:21:48;;;;;;;84.82;30.35;;;6.50;99.20;;;;;;5010652;28;20157;-78
2022/12/01 07:24:14;;;;;;;83.65;28.80;;;6.50;99.30;;;;;;5010341;28;20034;-78
2022/12/01 07:26:41;;;;;;;80.93;29.45;;;6.40;99.30;;;;;;5010193;28;20548;-78
2022/12/01 07:29:08;;;;;;;85.15;28.85;;;6.50;99.20;;;;;;5010147;28;20038;-79
2022/12/01 07:31:33;;;;;;;76.75;28.88;;;6.50;99.20;;;;;;5009867;28;20045;-77
2022/12/01 07:33:59;;;;;;;82.43;29.55;;;6.50;99.20;;;;;;5009202;28;20022;-77
2022/12/01 07:36:25;;;;;;;93.20;30.42;;;6.50;99.20;;;;;;5010241;28;20349;-78
2022/12/01 07:38:50;;;;;;;84.72;30.85;;;6.60;99.20;;;;;;5010162;28;20420;-77
2022/12/01 07:41:18;;;;;;;95.38;30.27;;;6.70;99.20;;;;;;5010022;28;20076;-78
2022/12/01 07:43:44;;;;;;;94.17;31.03;;;6.60;99.20;;;;;;5010031;28;20053;-78
2022/12/01 07:46:17;;;;;;;85.43;30.35;;;6.60;99.30;;;;;;5010646;28;20378;-78
2022/12/01 07:48:43;;;;;;;95.97;32.88;;;6.50;99.30;;;;;;5011915;28;20038;-78
2022/12/01 07:51:11;;;;;;;97.00;34.60;;;6.50;99.40;;;;;;5013899;28;20218;-79
2022/12/01 07:53:38;;;;;;;106.32;36.10;;;6.70;99.40;;;;;;5014095;28;20044;-79
2022/12/01 07:56:04;;;;;;;118.07;35.33;;;6.60;99.20;;;;;;5013831;28;20037;-78
2022/12/01 07:58:31;;;;;;;110.72;35.88;;;6.70;99.30;;;;;;5013391;28;20419;-77
2022/12/01 08:00:56;;;;;;;113.50;34.80;;;6.70;99.30;;;;;;5013903;28;20376;-78
2022/12/01 08:03:22;;;;;;;112.10;35.15;;;6.60;99.70;;;;;;5012340;28;20041;-77
2022/12/01 08:05:56;;;;;;;119.80;38.70;;;6.60;99.50;;;;;;5013746;28;20488;-77
2022/12/01 08:08:21;;;;;;;120.75;37.35;;;6.70;99.60;;;;;;5013380;28;20030;-77
2022/12/01 08:10:47;;;;;;;119.63;36.85;;;6.80;99.50;;;;;;5013480;28;20042;-77
2022/12/01 08:13:13;;;;;;;116.82;37.05;;;6.80;99.40;;;;;;5013712;28;20030;-78
2022/12/01 08:15:38;;;;;;;126.60;38.55;;;6.70;99.30;;;;;;5013273;28;20065;-78
2022/12/01 08:18:04;;;;;;;108.68;35.70;;;6.80;99.30;;;;;;5013135;28;20038;-79
2022/12/01 08:20:30;;;;;;;109.50;34.33;;;6.80;99.20;;;;;;5012009;28;20088;-78
2022/12/01 08:23:00;;;;;;;100.22;35.35;;;6.80;99.30;;;;;;5013398;28;20026;-78
2022/12/01 08:25:26;;;;;;;101.60;34.58;;;6.70;99.30;;;;;;5012260;28;20029;-77
2022/12/01 08:27:52;;;;;;;95.80;33.47;;;6.60;99.30;;;;;;5013445;28;20077;-77
2022/12/01 08:30:18;;;;;;;95.88;32.40;;;6.70;99.40;;;;;;5013255;28;20545;-78
2022/12/01 08:32:43;;;;;;;95.45;31.55;;;6.70;99.30;;;;;;5013219;28;20049;-76
2022/12/01 08:35:09;;;;;;;84.88;31.33;;;6.70;99.10;;;;;;5011933;28;20368;-76
2022/12/01 08:37:35;;;;;;;90.50;30.10;;;6.60;99.10;;;;;;5011587;28;20465;-79
2022/12/01 08:40:01;;;;;;;97.53;32.85;;;6.70;99.10;;;;;;5012201;28;20022;-77
2022/12/01 08:42:26;;;;;;;96.40;33.53;;;6.80;99.10;;;;;;5013039;28;20034;-79
2022/12/01 08:44:52;;;;;;;93.80;32.95;;;6.70;99.10;;;;;;5012078;28;20026;-78
2022/12/01 08:47:18;;;;;;;85.88;31.48;;;6.60;98.90;;;;;;5013206;28;20049;-77
2022/12/01 08:49:43;;;;;;;103.80;33.85;;;6.60;99.00;;;;;;5011770;28;20056;-77
2022/12/01 08:52:09;;;;;;;85.30;30.50;;;6.60;99.00;;;;;;5012399;28;20022;-77
2022/12/01 08:54:35;;;;;;;81.28;28.83;;;6.60;98.90;;;;;;5012144;28;20468;-78
2022/12/01 08:57:02;;;;;;;90.85;29.80;;;6.50;98.90;;;;;;5012877;28;20339;-77
2022/12/01 08:59:27;;;;;;;87.53;28.45;;;6.60;98.90;;;;;;5011753;28;20333;-77
2022/12/01 09:01:53;;;;;;;93.90;32.70;;;6.60;98.80;;;;;;5011682;28;20118;-78
2022/12/01 09:04:21;;;;;;;91.80;32.00;;;6.50;98.80;;;;;;5012651;28;20462;-77
2022/12/01 09:06:49;;;;;;;86.68;29.92;;;6.50;98.70;;;;;;5012012;28;20368;-78
2022/12/01 09:09:18;;;;;;;73.57;27.52;;;6.50;98.80;;;;;;5011330;28;20108;-77
2022/12/01 09:11:45;;;;;;;78.10;27.30;;;6.60;98.70;;;;;;5012072;28;20088;-77
2022/12/01 09:14:12;;;;;;;77.35;28.88;;;6.60;98.80;;;;;;5012476;28;20136;-76
2022/12/01 09:16:39;;;;;;;77.05;28.10;;;6.50;98.90;;;;;;5011203;28;20133;-77
2022/12/01 09:19:05;;;;;;;76.45;26.38;;;6.50;98.80;;;;;;5011772;28;20137;-77
2022/12/01 09:21:32;;;;;;;72.57;25.33;;;6.50;98.70;;;;;;5012452;28;20038;-76
2022/12/01 09:23:59;;;;;;;78.78;26.30;;;6.40;98.60;;;;;;5012524;28;20056;-79
2022/12/01 09:26:25;;;;;;;70.65;25.98;;;6.50;98.70;;;;;;5012832;28;20041;-77
2022/12/01 09:28:58;;;;;;;70.32;25.67;;;6.50;98.70;;;;;;5012533;28;20037;-78
2022/12/01 09:31:24;;;;;;;73.43;25.98;;;6.60;98.50;;;;;;5013793;28;20126;-78
2022/12/01 09:33:56;;;;;;;72.72;25.40;;;6.60;98.40;;;;;;5013779;28;20325;-78
2022/12/01 09:36:22;;;;;;;66.07;24.75;;;6.60;98.30;;;;;;5012053;28;20034;-79
2022/12/01 09:38:47;;;;;;;75.70;25.60;;;6.60;98.30;;;;;;5011920;28;20034;-78
2022/12/01 09:41:32;;;;;;;68.18;24.63;;;6.60;98.40;;;;;;5011853;28;20037;-77
2022/12/01 09:44:22;;;;;;;80.88;27.17;;;6.50;98.50;;;;;;5011007;28;20029;-78
2022/12/01 09:46:48;;;;;;;80.47;28.73;;;6.60;98.40;;;;;;5010933;28;20425;-77
2022/12/01 09:49:21;;;;;;;77.90;28.42;;;6.50;98.30;;;;;;5011189;28;20036;-77
2022/12/01 09:51:49;;;;;;;69.65;26.02;;;6.50;98.20;;;;;;5012236;28;20025;-77
2022/12/01 09:54:15;;;;;;;72.10;26.08;;;6.40;98.10;;;;;;5011976;28;20053;-77
2022/12/01 09:56:51;;;;;;;77.13;26.70;;;6.40;98.30;;;;;;5011862;28;20559;-76
2022/12/01 09:59:21;;;;;;;80.53;26.20;;;6.40;98.30;;;;;;5010563;28;20380;-77
2022/12/01 10:01:52;;;;;;;69.45;24.20;;;6.40;98.20;;;;;;5011760;28;20480;-78
2022/12/01 10:04:21;;;;;;;72.20;25.63;;;6.40;98.30;;;;;;5010468;28;20048;-76
2022/12/01 10:07:01;;;;;;;73.13;25.65;;;6.30;98.30;;;;;;5012088;28;20028;-77
2022/12/01 10:09:38;;;;;;;77.97;25.23;;;6.30;98.40;;;;;;5011749;28;20111;-79
2022/12/01 10:12:16;;;;;;;67.50;24.15;;;6.30;98.50;;;;;;5010740;28;20050;-76
2022/12/01 10:14:45;;;;;;;69.50;23.98;;;6.40;98.50;;;;;;5011306;28;20468;-78
2022/12/01 10:17:16;;;;;;;68.40;23.45;;;6.30;98.50;;;;;;5010468;28;20038;-78
2022/12/01 10:19:48;;;;;;;65.50;23.80;;;6.30;98.50;;;;;;5011518;28;20029;-77
2022/12/01 10:22:38;;;;;;;73.70;24.48;;;6.40;98.50;;;;;;5010481;28;20027;-76
2022/12/01 10:25:26;;;;;;;71.07;24.08;;;6.50;98.30;;;;;;5012024;28;20448;-76
2022/12/01 10:27:55;;;;;;;78.38;25.30;;;6.50;98.30;;;;;;5011789;28;20176;-76
2022/12/01 10:30:22;;;;;;;80.07;25.98;;;6.40;98.30;;;;;;5010998;28;20030;-77
2022/12/01 10:32:52;;;;;;;76.32;25.33;;;6.40;98.40;;;;;;5011687;28;20600;-79
2022/12/01 10:35:22;;;;;;;76.05;26.98;;;6.40;98.30;;;;;;5009758;28;20025;-78
2022/12/01 10:37:55;;;;;;;75.75;28.83;;;6.30;98.70;;;;;;5009962;28;20383;-77
2022/12/01 10:40:22;;;;;;;84.20;27.10;;;6.50;98.70;;;;;;5009534;28;20044;-78
2022/12/01 10:42:49;;;;;;;90.30;26.75;;;6.50;98.40;;;;;;5011169;28;20021;-77
2022/12/01 10:45:25;;;;;;;92.28;28.50;;;6.60;98.50;;;;;;5010640;28;20400;-77
2022/12/01 10:48:16;;;;;;;96.75;30.40;;;6.60;98.50;;;;;;5009460;28;20077;-78
2022/12/01 10:50:51;;;;;;;82.72;26.23;;;6.60;98.40;;;;;;5009638;28;20479;-78
2022/12/01 10:53:22;;;;;;;101.43;34.05;;;6.60;98.40;;;;;;5009392;28;20360;-78
2022/12/01 10:56:00;;;;;;;95.32;29.67;;;6.60;98.40;;;;;;5009588;28;20487;-78
2022/12/01 10:58:26;;;;;;;88.78;28.58;;;6.60;98.40;;;;;;5010826;28;20662;-79
2022/12/01 11:01:02;;;;;;;88.47;29.15;;;6.60;98.50;;;;;;5010994;28;20026;-78
2022/12/01 11:03:31;;;;;;;90.75;28.77;;;6.60;98.40;;;;;;5010610;28;20061;-78
2022/12/01 11:05:59;;;;;;;84.45;27.52;;;6.70;98.30;;;;;;5009454;28;20034;-78
2022/12/01 11:08:28;;;;;;;86.30;29.48;;;6.80;98.40;;;;;;5010343;28;20460;-77
2022/12/01 11:10:54;;;;;;;84.25;27.10;;;6.60;98.30;;;;;;5010428;28;20045;-77
2022/12/01 11:13:28;;;;;;;87.70;28.90;;;6.50;98.40;;;;;;5010176;28;20038;-77
2022/12/01 11:16:00;;;;;;;81.90;27.20;;;6.60;98.60;;;;;;5010677;28;20060;-78
2022/12/01 11:18:33;;;;;;;92.85;28.58;;;6.60;98.50;;;;;;5009391;28;20421;-76
2022/12/01 11:21:08;;;;;;;91.75;31.45;;;6.60;98.40;;;;;;5010310;28;20363;-78
2022/12/01 11:23:44;;;;;;;87.30;29.23;;;6.50;98.50;;;;;;5011923;28;20301;-77
2022/12/01 11:26:12;;;;;;;101.00;33.22;;;6.60;98.50;;;;;;5013319;28;20061;-78
2022/12/01 11:28:59;;;;;;;94.07;29.40;;;6.50;98.50;;;;;;5014747;28;20049;-77
2022/12/01 11:31:44;;;;;;;90.97;32.03;;;6.50;98.50;;;;;;5014285;28;20406;-78
2022/12/01 11:34:23;;;;;;;85.22;28.33;;;6.60;98.60;;;;;;5014465;28;20025;-78
2022/12/01 11:36:53;;;;;;;89.03;27.20;;;6.60;98.70;;;;;;5013040;28;20042;-77
2022/12/01 11:39:31;;;;;;;85.97;27.15;;;6.70;98.50;;;;;;5013373;28;20491;-77
2022/12/01 11:42:01;;;;;;;;;;;6.80;98.40;;;;;;5015031;28;20041;-76
2022/12/01 11:44:28;;;;;;;75.30;26.85;;;6.80;98.40;;;;;;5014312;28;19967;-78
2022/12/01 11:46:53;;;;;;;82.13;28.70;;;6.80;98.20;;;;;;5014227;28;20095;-78
2022/12/01 11:49:22;;;;;;;94.07;29.50;;;6.80;98.20;;;;;;5014268;28;20504;-77
2022/12/01 11:51:48;;;;;;;72.78;26.20;;;6.70;98.10;;;;;;5013762;28;20188;-78
2022/12/01 11:54:14;;;;;;;81.03;27.25;;;6.70;98.20;;;;;;5014290;28;20488;-78
2022/12/01 11:56:41;;;;;;;82.97;28.48;;;6.70;98.10;;;;;;5013771;28;20033;-78
2022/12/01 11:59:31;;;;;;;84.88;28.40;;;6.70;98.30;;;;;;5012743;28;20084;-78
2022/12/01 12:02:30;;;;;;;85.20;28.67;;;6.80;98.30;;;;;;5014002;28;20045;-77
2022/12/01 12:05:14;;;;;;;71.18;25.65;;;6.80;98.20;;;;;;5013684;28;20455;-78
2022/12/01 12:08:24;;;;;;;82.35;27.67;;;6.80;98.10;;;;;;5013966;28;20030;-78
2022/12/01 12:10:59;;;;;;;74.40;24.15;;;6.80;98.00;;;;;;4975469;28;20034;-76
2022/12/01 12:13:37;;;;;;;82.43;27.88;;;6.80;98.10;;;;;;5012501;28;20049;-77
2022/12/01 12:16:28;;;;;;;84.28;26.98;;;6.80;98.10;;;;;;5013100;28;20029;-77
2022/12/01 12:19:23;;;;;;;75.10;25.73;;;6.80;98.20;;;;;;4993767;28;20030;-76
2022/12/01 12:22:03;;;;;;;74.45;26.00;;;6.80;98.10;;;;;;5013565;28;20180;-78
2022/12/01 12:24:58;;;;;;;75.60;24.88;;;6.90;98.20;;;;;;5013399;28;20026;-78
2022/12/01 12:27:32;;;;;;;86.72;26.88;;;6.80;98.00;;;;;;5013500;28;20034;-78
2022/12/01 12:30:21;;;;;;;81.88;26.30;;;6.80;98.00;;;;;;5013601;28;20038;-78
2022/12/01 12:33:04;;;;;;;83.55;27.67;;;6.70;98.10;;;;;;5013864;28;20034;-77
2022/12/01 12:35:41;;;;;;;78.68;26.88;;;6.70;98.20;;;;;;5013405;28;20065;-77
2022/12/01 12:38:34;;;;;;;84.50;28.13;;;6.80;98.30;;;;;;5013314;28;20033;-79
2022/12/01 12:41:18;;;;;;;77.93;27.08;;;6.90;98.10;;;;;;5011899;28;20480;-78
2022/12/01 12:44:05;;;;;;;78.50;27.23;;;6.90;98.10;;;;;;5011784;28;20045;-77
2022/12/01 12:47:00;;;;;;;94.93;28.23;;;7.00;98.10;;;;;;5013004;28;20029;-78
2022/12/01 12:49:32;;;;;;;77.35;26.30;;;7.00;98.00;;;;;;5012770;28;20590;-77
2022/12/01 12:52:39;;;;;;;70.53;25.67;;;7.00;98.00;;;;;;5013716;28;20022;-78
2022/12/01 12:55:23;;;;;;;74.90;26.10;;;7.00;98.00;;;;;;5011836;28;20042;-77
2022/12/01 12:58:21;;;;;;;79.45;25.13;;;6.90;97.80;;;;;;5012411;28;20041;-78
2022/12/01 13:01:00;;;;;;;78.68;25.77;;;6.90;97.80;;;;;;5003803;28;20523;-78